| time (UTC) | temp C | wind direction | speed KPH | gust KPH | rain 1hr cm | rain 24hr cm | rain mn cm | humidity % | barometer mb |
| 20260508020223 | 25 | 231 | 4.8 | 16.1 | 0.00 | 0.00 | 0.00 | 32 | 1012.7 |
| 20260508020152 | 25 | 231 | 4.8 | 16.1 | 0.00 | 0.00 | 0.00 | 32 | 1012.7 |
| 20260508020121 | 25 | 231 | 4.8 | 16.1 | 0.00 | 0.00 | 0.00 | 32 | 1012.7 |
| 20260508014634 | 25 | 240 | 3.2 | 11.3 | 0.00 | 0.00 | 0.00 | 29 | 1012.7 |
| 20260508013043 | 25 | 211 | 8.0 | 20.9 | 0.00 | 0.00 | 0.00 | 22 | 1012.8 |
| 20260508011544 | 25 | 236 | 8.0 | 22.5 | 0.00 | 0.00 | 0.00 | 19 | 1012.7 |
| 20260508010049 | 26 | 214 | 8.0 | 24.1 | 0.00 | 0.00 | 0.00 | 23 | 1012.9 |
| 20260508004554 | 26 | 214 | 8.0 | 20.9 | 0.00 | 0.00 | 0.00 | 21 | 1012.7 |
| 20260508003046 | 26 | 210 | 9.7 | 17.7 | 0.00 | 0.00 | 0.00 | 19 | 1012.6 |
| 20260508001543 | 27 | 281 | 0.0 | 6.4 | 0.00 | 0.00 | 0.00 | 23 | 1012.8 |
| 20260508000049 | 27 | 340 | 3.2 | 8.0 | 0.00 | 0.00 | 0.00 | 22 | 1012.4 |
| 20260507234605 | 28 | 0 | 1.6 | 9.7 | 0.00 | 0.00 | 0.00 | 21 | 1012.3 |
| 20260507233049 | 27 | 25 | 3.2 | 11.3 | 0.00 | 0.00 | 0.00 | 22 | 1012.3 |
| 20260507231549 | 27 | 61 | 6.4 | 16.1 | 0.00 | 0.00 | 0.00 | 22 | 1012.3 |
| 20260507230046 | 27 | 13 | 1.6 | 16.1 | 0.00 | 0.00 | 0.00 | 23 | 1012.4 |
| 20260507224542 | 28 | 1 | 1.6 | 14.5 | 0.00 | 0.00 | 0.00 | 16 | 1012.5 |
| 20260507223051 | 28 | 96 | 3.2 | 12.9 | 0.00 | 0.00 | 0.00 | 16 | 1012.6 |
| 20260507221548 | 27 | 351 | 4.8 | 8.0 | 0.00 | 0.00 | 0.00 | 16 | 1012.8 |
| 20260507220044 | 27 | 182 | 8.0 | 17.7 | 0.00 | 0.00 | 0.00 | 14 | 1013.1 |
| 20260507214724 | 27 | 25 | 3.2 | 11.3 | 0.00 | 0.00 | 0.00 | 12 | 1013.3 |
| 20260507213042 | 27 | 233 | 3.2 | 9.7 | 0.00 | 0.00 | 0.00 | 13 | 1013.4 |
| 20260507211548 | 27 | 0 | 3.2 | 9.7 | 0.00 | 0.00 | 0.00 | 16 | 1013.7 |
| 20260507210049 | 26 | 13 | 1.6 | 9.7 | 0.00 | 0.00 | 0.00 | 21 | 1013.7 |
| 20260507204544 | 26 | 326 | 1.6 | 8.0 | 0.00 | 0.00 | 0.00 | 21 | 1014.0 |
| 20260507203048 | 26 | 0 | 3.2 | 9.7 | 0.00 | 0.00 | 0.00 | 23 | 1014.1 |
| 20260507201547 | 26 | 18 | 0.0 | 11.3 | 0.00 | 0.00 | 0.00 | 24 | 1014.3 |
| 20260507200051 | 26 | 239 | 3.2 | 8.0 | 0.00 | 0.00 | 0.00 | 26 | 1014.6 |
| 20260507194548 | 26 | 0 | 0.0 | 8.0 | 0.00 | 0.00 | 0.00 | 25 | 1014.7 |
| 20260507193050 | 25 | 25 | 1.6 | 9.7 | 0.00 | 0.00 | 0.00 | 24 | 1014.8 |
| 20260507191544 | 25 | 0 | 0.0 | 8.0 | 0.00 | 0.00 | 0.00 | 25 | 1015.0 |
| 20260507190043 | 23 | 157 | 4.8 | 12.9 | 0.00 | 0.00 | 0.00 | 28 | 1015.2 |
| 20260507184545 | 23 | 0 | 3.2 | 8.0 | 0.00 | 0.00 | 0.00 | 30 | 1015.3 |
| 20260507183045 | 23 | 6 | 4.8 | 8.0 | 0.00 | 0.00 | 0.00 | 35 | 1015.6 |
| 20260507181543 | 22 | 217 | 0.0 | 4.8 | 0.00 | 0.00 | 0.00 | 36 | 1015.8 |
| 20260507180045 | 22 | 83 | 1.6 | 8.0 | 0.00 | 0.00 | 0.00 | 37 | 1015.9 |
| 20260507174550 | 22 | 328 | 3.2 | 8.0 | 0.00 | 0.00 | 0.00 | 38 | 1016.0 |
| 20260507173049 | 22 | 214 | 1.6 | 8.0 | 0.00 | 0.00 | 0.00 | 39 | 1016.2 |
| 20260507171604 | 21 | 280 | 1.6 | 8.0 | 0.00 | 0.00 | 0.00 | 42 | 1016.4 |
| 20260507170044 | 20 | 292 | 4.8 | 11.3 | 0.00 | 0.00 | 0.00 | 41 | 1016.4 |
| 20260507164600 | 20 | 0 | 1.6 | 9.7 | 0.00 | 0.00 | 0.00 | 43 | 1016.6 |
| 20260507163043 | 19 | 200 | 6.4 | 11.3 | 0.00 | 0.00 | 0.00 | 46 | 1016.3 |
| 20260507161547 | 18 | 141 | 3.2 | 9.7 | 0.00 | 0.00 | 0.00 | 47 | 1016.7 |
| 20260507160044 | 18 | 140 | 6.4 | 14.5 | 0.00 | 0.00 | 0.00 | 48 | 1016.9 |
| 20260507154545 | 17 | 0 | 1.6 | 8.0 | 0.00 | 0.00 | 0.00 | 55 | 1016.9 |
| 20260507153048 | 16 | 0 | 0.0 | 3.2 | 0.00 | 0.00 | 0.00 | 58 | 1017.0 |
| 20260507151544 | 16 | 26 | 1.6 | 4.8 | 0.00 | 0.00 | 0.00 | 58 | 1017.3 |
| 20260507150052 | 16 | 343 | 0.0 | 4.8 | 0.00 | 0.00 | 0.00 | 60 | 1017.2 |
| 20260507144550 | 16 | 39 | 0.0 | 3.2 | 0.00 | 0.00 | 0.00 | 59 | 1017.2 |
| 20260507143046 | 15 | 0 | 1.6 | 6.4 | 0.00 | 0.00 | 0.00 | 62 | 1017.1 |
| 20260507141550 | 15 | 210 | 0.0 | 4.8 | 0.00 | 0.00 | 0.00 | 62 | 1017.2 |
| 20260507140058 | 13 | 0 | 0.0 | 8.0 | 0.00 | 0.00 | 0.00 | 65 | 1017.0 |
| 20260507134554 | 13 | 212 | 3.2 | 9.7 | 0.00 | 0.00 | 0.00 | 64 | 1017.1 |
| 20260507133044 | 14 | 205 | 3.2 | 9.7 | 0.00 | 0.00 | 0.00 | 63 | 1016.8 |
| 20260507131550 | 13 | 210 | 3.2 | 11.3 | 0.00 | 0.00 | 0.00 | 65 | 1016.6 |
| 20260507130054 | 13 | 228 | 3.2 | 9.7 | 0.00 | 0.00 | 0.00 | 65 | 1016.5 |
| 20260507124541 | 13 | 148 | 0.0 | 1.6 | 0.00 | 0.00 | 0.00 | 66 | 1016.7 |
| 20260507123044 | 13 | 0 | 0.0 | 3.2 | 0.00 | 0.00 | 0.00 | 65 | 1016.6 |
| 20260507121543 | 13 | 0 | 0.0 | 4.8 | 0.00 | 0.00 | 0.00 | 64 | 1016.6 |
| 20260507120046 | 13 | 260 | 3.2 | 8.0 | 0.00 | 0.00 | 0.00 | 64 | 1016.4 |
| 20260507114547 | 14 | 179 | 3.2 | 9.7 | 0.00 | 0.00 | 0.00 | 64 | 1016.2 |
| 20260507113040 | 14 | 232 | 3.2 | 9.7 | 0.00 | 0.00 | 0.00 | 63 | 1016.3 |
| 20260507111544 | 14 | 240 | 1.6 | 14.5 | 0.00 | 0.00 | 0.00 | 63 | 1016.4 |
| 20260507110059 | 15 | 158 | 4.8 | 11.3 | 0.00 | 0.00 | 0.00 | 62 | 1016.2 |
| 20260507104545 | 15 | 188 | 3.2 | 11.3 | 0.00 | 0.00 | 0.00 | 62 | 1016.1 |
| 20260507103041 | 15 | 184 | 4.8 | 14.5 | 0.00 | 0.00 | 0.00 | 62 | 1016.0 |
| 20260507101546 | 15 | 211 | 6.4 | 17.7 | 0.00 | 0.00 | 0.00 | 62 | 1016.0 |
| 20260507100044 | 15 | 205 | 3.2 | 12.9 | 0.00 | 0.00 | 0.00 | 62 | 1016.2 |
| 20260507094545 | 15 | 218 | 6.4 | 11.3 | 0.00 | 0.00 | 0.00 | 62 | 1016.3 |
| 20260507093047 | 15 | 232 | 4.8 | 14.5 | 0.00 | 0.00 | 0.00 | 61 | 1016.4 |
| 20260507091611 | 15 | 207 | 3.2 | 16.1 | 0.00 | 0.00 | 0.00 | 60 | 1016.3 |
| 20260507090055 | 16 | 223 | 1.6 | 6.4 | 0.00 | 0.00 | 0.00 | 60 | 1016.4 |
| 20260507084555 | 16 | 162 | 3.2 | 12.9 | 0.00 | 0.00 | 0.00 | 60 | 1016.4 |
| 20260507083043 | 16 | 210 | 9.7 | 17.7 | 0.00 | 0.00 | 0.00 | 59 | 1016.2 |
| 20260507081548 | 16 | 224 | 8.0 | 19.3 | 0.00 | 0.00 | 0.00 | 59 | 1016.3 |
| 20260507080230 | 16 | 228 | 1.6 | 9.7 | 0.00 | 0.00 | 0.00 | 59 | 1016.2 |